Tropical Cyclones
[Index]
Main Index Home Page Stock Weather Photos Extreme Storms Discussion Storm News and Storm Chasing Reports Tropical Cyclones / Hurricanes / Typhoons Weather Data and Links Wild Fires / Bushfires Weather Observation Techniques Weather Picture Catalogue Tornado Pictures and Reports Stock Video Footage and DVDs for sale
Season 1980-1981 Tropical Cyclone IADINE Track Map
Season 1980-1981 Summaries: [BoM-AU] [JTWC-AU] [JTWC-SIO] [JTWC-SPAC] [JTWC-SH]
<<- Previous TC | JTWC 1980-1981 Season | Next TC ->>

click for intensity scale information  Lat/long Grid: Show Hide

 Date Labels: Show Hide

Joint Typhoon Warning Centre Cyclone Data

Name: IADINE

16 Feb 1981 12:00 UTC to 23 Feb 1981 12:00 UTC

    date/time    lat    long     hPa   cat  kts
1981-02-16 12   12.4    54.8                  25          
1981-02-16 18   12.4    53.6                  30          
1981-02-17 00   12.4    52.6                  30          
1981-02-17 06   12.4    51.7                  30          
1981-02-17 12   12.5    50.9                  30          
1981-02-17 18   12.7    49.5                  35          
1981-02-18 00   12.9    48.1            1     40          
1981-02-18 06   13.1    47.3            1     45          
1981-02-18 12   13.4    46.5            1     45          
1981-02-18 18   13.8    45.7            1     45          
1981-02-19 00   14.2    45.0            1     45          
1981-02-19 06   14.6    44.5            1     45          
1981-02-19 12   15.0    44.2            1     45          
1981-02-19 18   15.4    43.9            1     50          
1981-02-20 00   15.9    43.8            2     55          
1981-02-20 06   16.5    43.9            2     55          
1981-02-20 12   17.1    44.1            1     50          
1981-02-20 18   17.4    44.4            1     45          
1981-02-21 00   17.8    44.7            1     40          
1981-02-21 06   18.8    45.1                  35          
1981-02-21 12   19.8    45.6                  30          
1981-02-21 18   20.7    46.3                  25          
1981-02-22 00   21.5    47.0                  20          
1981-02-22 06   22.3    47.8                  20          
1981-02-22 12   23.1    48.7                  25          
1981-02-22 18   24.0    49.9                  25          
1981-02-23 00   25.0    51.5                  30          
1981-02-23 06   26.2    53.5                  30          
1981-02-23 12   27.7    55.9                  35          
Winds are 1-min average.

Tropical cyclone tracks developed by Michael Bath using data from the Joint Typhoon Warning Centre Best Tracks and Google Maps.


[Australian Severe Weather index] [Copyright Notice] [Email Contacts] [Search This Site] [Privacy Policy]
Document: tropical_cyclone_iadine.htm Updated: 18 September 2016